METAR Data
IDs: Format: Raw Decoded Include TAF

Data at: 2052 UTC 01 Dec 2021

EIDW 012030Z 29009KT 9999 FEW012 SCT080 BKN250 03/02 Q1012 NOSIG